Time;durP1;ratioP1;P1;durP2;ratioP2;P2;SDS_P1;SDS_P2;PMS_P1;PMS_P2;Temp;Humidity;BMP_temperature;BMP_pressure;BME280_temperature;BME280_humidity;BME280_pressure;Samples;Min_cycle;Max_cycle;Signal;HPM_P1;HPM_P2
2023/08/25 00:02:19;;;;;;;5.00;4.43;;;22.90;99.90;;;;;;4943730;28;20206;-69
2023/08/25 00:04:45;;;;;;;6.10;4.50;;;22.90;99.90;;;;;;4948027;28;20604;-69
2023/08/25 00:07:11;;;;;;;7.10;4.60;;;22.90;99.90;;;;;;4932027;29;20470;-69
2023/08/25 00:09:37;;;;;;;5.37;4.80;;;22.80;99.90;;;;;;4942011;29;20931;-70
2023/08/25 00:12:03;;;;;;;4.40;4.00;;;22.80;99.90;;;;;;4946226;28;20206;-69
2023/08/25 00:14:28;;;;;;;4.00;3.70;;;22.80;99.90;;;;;;4945371;28;20229;-70
2023/08/25 00:16:54;;;;;;;5.83;4.13;;;22.90;99.90;;;;;;4952882;29;20810;-68
2023/08/25 00:19:20;;;;;;;5.10;4.63;;;22.80;99.90;;;;;;4945544;29;20183;-68
2023/08/25 00:21:45;;;;;;;5.63;4.50;;;22.90;99.90;;;;;;4947767;29;20244;-69
2023/08/25 00:24:11;;;;;;;6.07;4.73;;;22.90;99.90;;;;;;4947252;29;20202;-69
2023/08/25 00:26:39;;;;;;;4.13;3.83;;;22.90;99.90;;;;;;4947175;29;20227;-69
2023/08/25 00:29:05;;;;;;;4.50;4.10;;;22.90;99.90;;;;;;4947831;29;20170;-69
2023/08/25 00:31:30;;;;;;;5.73;4.53;;;22.90;99.90;;;;;;4936797;29;21174;-69
2023/08/25 00:33:57;;;;;;;6.03;4.23;;;22.90;99.90;;;;;;4942926;28;20953;-69
2023/08/25 00:36:28;;;;;;;9.83;8.23;;;22.90;99.90;;;;;;4947364;29;20188;-70
2023/08/25 00:39:02;;;;;;;5.77;5.27;;;22.90;99.90;;;;;;4932085;29;20418;-70
2023/08/25 00:41:28;;;;;;;11.53;10.03;;;22.90;99.90;;;;;;4919079;29;20449;-70
2023/08/25 00:43:54;;;;;;;12.27;10.73;;;22.80;99.90;;;;;;4932013;29;20508;-70
2023/08/25 00:46:23;;;;;;;12.37;10.77;;;22.80;99.90;;;;;;4926458;29;20288;-69
2023/08/25 00:48:54;;;;;;;4.27;3.90;;;22.90;99.90;;;;;;4915758;29;20180;-69
2023/08/25 00:51:24;;;;;;;5.07;4.60;;;22.80;99.90;;;;;;4918618;29;20422;-67
2023/08/25 00:53:53;;;;;;;4.00;3.63;;;22.80;99.90;;;;;;4932965;28;20956;-69
2023/08/25 00:56:19;;;;;;;4.23;3.93;;;22.70;99.90;;;;;;4900704;29;20936;-68
2023/08/25 00:58:45;;;;;;;5.50;4.10;;;22.70;99.90;;;;;;4929110;29;20457;-68
2023/08/25 01:01:17;;;;;;;6.60;5.30;;;22.60;99.90;;;;;;4932338;29;20452;-70
2023/08/25 01:03:51;;;;;;;6.87;6.27;;;22.60;99.90;;;;;;4918610;29;20710;-70
2023/08/25 01:06:23;;;;;;;4.30;3.90;;;22.60;99.90;;;;;;4906329;29;20530;-71
2023/08/25 01:08:49;;;;;;;4.73;4.33;;;22.60;99.90;;;;;;4930009;29;20422;-71
2023/08/25 01:11:30;;;;;;;4.50;4.20;;;22.70;99.90;;;;;;4951701;29;20417;-73
2023/08/25 01:14:13;;;;;;;4.80;4.40;;;22.70;99.90;;;;;;4941713;29;20835;-71
2023/08/25 01:17:11;;;;;;;5.00;4.60;;;22.60;99.90;;;;;;4918325;29;20424;-70
2023/08/25 01:20:06;;;;;;;4.83;4.23;;;22.60;99.90;;;;;;4943625;29;20422;-69
2023/08/25 01:23:09;;;;;;;4.30;4.00;;;22.60;99.90;;;;;;4930206;29;21067;-70
2023/08/25 01:25:38;;;;;;;4.43;4.03;;;22.50;99.90;;;;;;4946502;29;20804;-69
2023/08/25 01:28:06;;;;;;;4.33;3.97;;;22.50;99.90;;;;;;4950876;29;20527;-69
2023/08/25 01:30:34;;;;;;;6.93;6.30;;;22.50;99.90;;;;;;4929099;29;20413;-71
2023/08/25 01:33:05;;;;;;;16.27;14.73;;;22.40;99.90;;;;;;4943133;29;20483;-70
2023/08/25 01:35:50;;;;;;;5.20;4.80;;;22.50;99.90;;;;;;4921300;29;20458;-69
2023/08/25 01:38:47;;;;;;;20.20;17.20;;;22.40;99.90;;;;;;4941210;29;20429;-70
2023/08/25 01:41:42;;;;;;;5.03;4.73;;;22.40;99.90;;;;;;4934761;29;20434;-70
2023/08/25 01:44:14;;;;;;;4.87;4.43;;;22.40;99.90;;;;;;4912151;29;20489;-71
2023/08/25 01:46:51;;;;;;;9.20;8.27;;;22.40;99.90;;;;;;4931019;29;20504;-70
2023/08/25 01:49:19;;;;;;;6.47;5.50;;;22.40;99.90;;;;;;4927550;29;20438;-69
2023/08/25 01:51:48;;;;;;;16.50;14.80;;;22.50;99.90;;;;;;4943354;29;20749;-71
2023/08/25 01:54:16;;;;;;;6.80;6.20;;;22.50;99.90;;;;;;4915738;29;20509;-73
2023/08/25 01:56:45;;;;;;;16.20;11.27;;;22.40;99.90;;;;;;4922873;29;20417;-72
2023/08/25 01:59:14;;;;;;;6.20;4.90;;;22.50;99.90;;;;;;4945647;29;20412;-76
2023/08/25 02:01:39;;;;;;;5.97;4.60;;;22.50;99.90;;;;;;4920877;29;20460;-69
2023/08/25 02:04:16;;;;;;;5.33;4.83;;;22.50;99.90;;;;;;4908938;29;20516;-72
2023/08/25 02:06:46;;;;;;;5.60;4.70;;;22.50;99.90;;;;;;4930138;29;20191;-70
2023/08/25 02:09:21;;;;;;;6.17;5.40;;;22.50;99.90;;;;;;4923722;29;20475;-69
2023/08/25 02:11:47;;;;;;;5.53;5.03;;;22.40;99.90;;;;;;4927346;29;20424;-68
2023/08/25 02:14:12;;;;;;;4.83;4.40;;;22.40;99.90;;;;;;4927245;29;20805;-68
2023/08/25 02:16:38;;;;;;;5.57;5.17;;;22.50;99.90;;;;;;4946480;29;20206;-70
2023/08/25 02:19:03;;;;;;;6.70;6.10;;;22.40;99.90;;;;;;4944427;29;20188;-69
2023/08/25 02:21:29;;;;;;;22.03;19.83;;;22.40;99.90;;;;;;4947518;29;20181;-69
2023/08/25 02:23:55;;;;;;;6.27;5.50;;;22.50;99.90;;;;;;4951613;29;20250;-69
2023/08/25 02:26:21;;;;;;;8.30;4.60;;;22.30;99.90;;;;;;4944737;29;20255;-68
2023/08/25 02:28:47;;;;;;;5.87;5.27;;;22.30;99.90;;;;;;4950258;29;20848;-68
2023/08/25 02:31:13;;;;;;;4.97;4.30;;;22.30;99.90;;;;;;4943005;29;20178;-70
2023/08/25 02:33:38;;;;;;;5.17;4.67;;;22.30;99.90;;;;;;4941499;28;20174;-68
2023/08/25 02:36:04;;;;;;;5.80;5.20;;;22.30;99.90;;;;;;4941726;29;20198;-68
2023/08/25 02:38:29;;;;;;;7.23;6.00;;;22.30;99.90;;;;;;4944427;29;20700;-69
2023/08/25 02:40:55;;;;;;;7.43;6.00;;;22.30;99.90;;;;;;4948099;29;20178;-68
2023/08/25 02:43:20;;;;;;;9.20;8.30;;;22.30;99.90;;;;;;4942833;29;20206;-68
2023/08/25 02:45:46;;;;;;;5.10;4.70;;;22.40;99.90;;;;;;4945678;28;20245;-69
2023/08/25 02:48:12;;;;;;;6.07;5.60;;;22.30;99.90;;;;;;4943728;29;20171;-68
2023/08/25 02:50:37;;;;;;;5.83;5.33;;;22.40;99.90;;;;;;4941476;29;20176;-68
2023/08/25 02:53:03;;;;;;;6.60;5.30;;;22.30;99.90;;;;;;4944975;29;20187;-69
2023/08/25 02:55:30;;;;;;;5.37;4.97;;;22.30;99.90;;;;;;4934647;29;20766;-70
2023/08/25 02:57:55;;;;;;;5.93;5.43;;;22.40;99.90;;;;;;4940739;29;20228;-70
2023/08/25 03:00:25;;;;;;;7.93;5.37;;;22.30;99.90;;;;;;4942713;29;20493;-68
2023/08/25 03:02:51;;;;;;;6.37;5.30;;;22.20;99.90;;;;;;4944228;28;20258;-68
2023/08/25 03:05:17;;;;;;;5.93;5.43;;;22.20;99.90;;;;;;4943419;28;20447;-68
2023/08/25 03:07:43;;;;;;;6.20;5.57;;;22.20;99.90;;;;;;4936312;29;20547;-69
2023/08/25 03:10:09;;;;;;;8.00;5.87;;;22.10;99.90;;;;;;4939467;29;20529;-69
2023/08/25 03:12:35;;;;;;;6.57;6.07;;;22.10;99.90;;;;;;4944572;29;20581;-69
2023/08/25 03:15:00;;;;;;;8.73;5.70;;;22.10;99.90;;;;;;4945369;29;20477;-70
2023/08/25 03:17:26;;;;;;;6.23;5.50;;;22.00;99.90;;;;;;4943227;29;20182;-69
2023/08/25 03:19:52;;;;;;;6.83;6.13;;;22.00;99.90;;;;;;4945869;29;20174;-70
2023/08/25 03:22:18;;;;;;;6.00;5.40;;;22.00;99.90;;;;;;4927178;29;20205;-69
2023/08/25 03:24:43;;;;;;;5.70;5.20;;;22.10;99.90;;;;;;4944017;28;20773;-69
2023/08/25 03:27:09;;;;;;;15.00;13.47;;;22.10;99.90;;;;;;4935289;29;20203;-69
2023/08/25 03:29:34;;;;;;;8.40;7.70;;;22.20;99.90;;;;;;4936447;29;20719;-70
2023/08/25 03:32:01;;;;;;;7.13;6.30;;;22.10;99.90;;;;;;4945735;29;20178;-71
2023/08/25 03:34:26;;;;;;;6.37;5.80;;;22.10;99.90;;;;;;4939520;28;20217;-70
2023/08/25 03:36:52;;;;;;;6.07;5.50;;;22.10;99.90;;;;;;4945388;29;20420;-70
2023/08/25 03:39:18;;;;;;;6.20;5.77;;;22.00;99.90;;;;;;4943695;29;20175;-69
2023/08/25 03:41:44;;;;;;;6.53;5.80;;;22.10;99.90;;;;;;4945026;29;20180;-69
2023/08/25 03:44:10;;;;;;;7.13;6.53;;;22.00;99.90;;;;;;4943684;28;20465;-68
2023/08/25 03:46:36;;;;;;;6.67;6.00;;;22.00;99.90;;;;;;4945386;28;20465;-70
2023/08/25 03:49:02;;;;;;;9.53;8.73;;;22.00;99.90;;;;;;4935540;29;20258;-70
2023/08/25 03:51:28;;;;;;;6.57;6.00;;;22.10;99.90;;;;;;4944792;29;20491;-69
2023/08/25 03:53:53;;;;;;;7.13;6.47;;;22.10;99.90;;;;;;4948935;28;20526;-69
2023/08/25 03:56:19;;;;;;;8.23;6.60;;;22.10;99.90;;;;;;4947341;29;20189;-70
2023/08/25 03:58:45;;;;;;;8.67;6.60;;;22.00;99.90;;;;;;4952580;29;20176;-68
2023/08/25 04:01:10;;;;;;;5.57;5.10;;;22.00;99.90;;;;;;4948973;28;20191;-69
2023/08/25 04:03:36;;;;;;;7.03;6.43;;;22.00;99.90;;;;;;4947019;28;20873;-69
2023/08/25 04:06:02;;;;;;;7.67;5.90;;;22.00;99.90;;;;;;4948878;29;20169;-69
2023/08/25 04:08:28;;;;;;;6.50;5.90;;;21.90;99.90;;;;;;4946421;29;20171;-70
2023/08/25 04:10:53;;;;;;;6.67;5.90;;;21.90;99.90;;;;;;4950066;29;20409;-69
2023/08/25 04:13:19;;;;;;;7.00;5.23;;;21.90;99.90;;;;;;4948363;29;20185;-68
2023/08/25 04:15:53;;;;;;;6.10;5.60;;;21.90;99.90;;;;;;4949737;29;20265;-68
2023/08/25 04:18:18;;;;;;;6.87;5.80;;;21.90;99.90;;;;;;4947782;29;20550;-69
2023/08/25 04:20:44;;;;;;;6.00;5.40;;;22.00;99.90;;;;;;4936164;29;20520;-69
2023/08/25 04:23:09;;;;;;;6.40;5.87;;;22.00;99.90;;;;;;4944152;29;20204;-69
2023/08/25 04:25:35;;;;;;;6.70;6.20;;;22.00;99.90;;;;;;4946105;29;20675;-69
2023/08/25 04:28:00;;;;;;;6.00;5.50;;;21.90;99.90;;;;;;4950373;29;20168;-69
2023/08/25 04:30:26;;;;;;;6.30;5.67;;;21.90;99.90;;;;;;4946743;29;20177;-70
2023/08/25 04:32:52;;;;;;;6.47;5.70;;;21.90;99.90;;;;;;4945228;29;20191;-68
2023/08/25 04:35:18;;;;;;;9.73;6.00;;;21.90;99.90;;;;;;4948920;28;20220;-69
2023/08/25 04:37:47;;;;;;;6.40;5.80;;;21.90;99.90;;;;;;4943283;29;20442;-68
2023/08/25 04:40:14;;;;;;;6.73;6.17;;;21.90;99.90;;;;;;4951206;29;20405;-69
2023/08/25 04:42:40;;;;;;;6.47;5.87;;;22.00;99.90;;;;;;4944533;29;20815;-69
2023/08/25 04:45:07;;;;;;;6.10;5.20;;;22.00;99.90;;;;;;4933397;29;21082;-69
2023/08/25 04:47:33;;;;;;;6.10;5.60;;;22.00;99.90;;;;;;4946522;29;20939;-69
2023/08/25 04:50:02;;;;;;;6.20;5.70;;;22.20;99.90;;;;;;4944902;29;20421;-70
2023/08/25 04:52:28;;;;;;;8.00;5.97;;;22.20;99.90;;;;;;4951537;29;20516;-70
2023/08/25 04:54:54;;;;;;;7.40;6.70;;;22.20;99.90;;;;;;4936567;29;20513;-70
2023/08/25 04:57:19;;;;;;;6.27;5.80;;;22.20;99.90;;;;;;4936331;29;20431;-68
2023/08/25 04:59:45;;;;;;;9.50;5.67;;;22.30;99.90;;;;;;4947998;29;20539;-70
2023/08/25 05:02:10;;;;;;;6.13;5.53;;;22.20;99.90;;;;;;4950949;29;20241;-69
2023/08/25 05:04:36;;;;;;;7.90;7.10;;;22.20;99.90;;;;;;4945017;28;20197;-69
2023/08/25 05:07:02;;;;;;;6.80;5.60;;;22.20;99.90;;;;;;4948515;29;20170;-69
2023/08/25 05:09:28;;;;;;;8.87;6.27;;;22.20;99.90;;;;;;4943098;29;20667;-69
2023/08/25 05:11:53;;;;;;;6.03;5.47;;;22.20;99.90;;;;;;4936399;29;20411;-69
2023/08/25 05:14:19;;;;;;;8.30;6.83;;;22.20;99.90;;;;;;4944820;29;20218;-70
2023/08/25 05:16:45;;;;;;;13.47;6.50;;;22.20;99.90;;;;;;4952655;29;20180;-70
2023/08/25 05:19:12;;;;;;;6.27;5.77;;;22.20;99.90;;;;;;4949051;29;20179;-69
2023/08/25 05:21:37;;;;;;;5.53;5.13;;;22.30;99.90;;;;;;4949543;29;20174;-70
2023/08/25 05:24:22;;;;;;;6.63;5.90;;;22.30;99.90;;;;;;4950487;29;20435;-69
2023/08/25 05:26:52;;;;;;;8.97;6.63;;;22.30;99.90;;;;;;4937755;29;20201;-69
2023/08/25 05:29:26;;;;;;;6.80;6.00;;;22.30;99.90;;;;;;4943495;29;20434;-69
2023/08/25 05:31:52;;;;;;;5.50;5.10;;;22.30;99.90;;;;;;4947203;29;20409;-70
2023/08/25 05:34:18;;;;;;;8.50;6.00;;;22.50;99.90;;;;;;4944926;28;20502;-70
2023/08/25 05:36:44;;;;;;;6.50;5.90;;;22.70;99.90;;;;;;4946130;29;20537;-68
2023/08/25 05:39:09;;;;;;;6.73;6.03;;;22.80;99.90;;;;;;4939683;29;20195;-68
2023/08/25 05:41:35;;;;;;;6.80;6.00;;;22.90;99.90;;;;;;4933033;29;20187;-68
2023/08/25 05:44:02;;;;;;;6.73;5.53;;;23.00;99.90;;;;;;4940872;28;20528;-70
2023/08/25 05:46:29;;;;;;;8.10;5.67;;;23.00;99.90;;;;;;4945923;29;20418;-69
2023/08/25 05:48:55;;;;;;;6.70;5.40;;;22.90;99.90;;;;;;4941469;29;20502;-69
2023/08/25 05:51:21;;;;;;;6.53;5.63;;;23.00;99.90;;;;;;4942147;29;20502;-70
2023/08/25 05:53:46;;;;;;;5.33;4.90;;;23.00;99.90;;;;;;4946408;28;20282;-70
2023/08/25 05:56:12;;;;;;;7.20;6.43;;;23.00;99.90;;;;;;4942522;29;20250;-69
2023/08/25 05:58:37;;;;;;;8.83;5.93;;;23.00;99.90;;;;;;4943855;29;20197;-70
2023/08/25 06:01:03;;;;;;;9.27;5.10;;;23.50;99.90;;;;;;4948352;29;20184;-69
2023/08/25 06:03:29;;;;;;;7.20;5.73;;;24.10;99.90;;;;;;4945753;28;20208;-69
2023/08/25 06:05:55;;;;;;;9.43;5.50;;;24.20;99.90;;;;;;4945935;29;20225;-69
2023/08/25 06:08:21;;;;;;;5.33;4.90;;;24.70;99.90;;;;;;4943715;29;20413;-69
2023/08/25 06:10:49;;;;;;;6.00;5.40;;;24.90;99.90;;;;;;4947041;29;20625;-68
2023/08/25 06:13:14;;;;;;;7.80;5.50;;;25.30;99.90;;;;;;4941736;29;20179;-68
2023/08/25 06:15:40;;;;;;;6.17;5.53;;;25.40;99.90;;;;;;4945418;28;20857;-68
2023/08/25 06:18:06;;;;;;;7.10;5.37;;;26.10;99.90;;;;;;4940880;29;20217;-68
2023/08/25 06:20:32;;;;;;;5.30;4.73;;;26.30;99.90;;;;;;4945902;29;20237;-68
2023/08/25 06:22:58;;;;;;;5.10;4.70;;;26.90;99.90;;;;;;4945418;29;20509;-69
2023/08/25 06:25:24;;;;;;;7.83;5.00;;;27.10;99.90;;;;;;4948673;28;20444;-69
2023/08/25 06:27:49;;;;;;;7.50;5.17;;;27.50;99.90;;;;;;4946079;29;20421;-69
2023/08/25 06:30:16;;;;;;;6.27;5.10;;;27.50;99.90;;;;;;4941554;29;20434;-68
2023/08/25 06:32:42;;;;;;;5.10;4.67;;;27.40;99.90;;;;;;4924591;29;20655;-68
2023/08/25 06:35:10;;;;;;;7.30;5.03;;;27.70;99.90;;;;;;4939382;29;20469;-69
2023/08/25 06:37:35;;;;;;;6.03;5.53;;;27.40;99.90;;;;;;4935493;29;20465;-69
2023/08/25 06:40:05;;;;;;;5.80;5.30;;;27.80;99.90;;;;;;4930786;29;20888;-69
2023/08/25 06:42:31;;;;;;;5.20;4.70;;;27.90;99.90;;;;;;4917254;29;20209;-68
2023/08/25 06:44:56;;;;;;;5.77;5.27;;;28.20;99.90;;;;;;4934240;29;20922;-71
2023/08/25 06:47:22;;;;;;;6.00;5.50;;;28.60;99.90;;;;;;4933373;29;20206;-69
2023/08/25 06:49:48;;;;;;;5.40;5.00;;;28.20;99.90;;;;;;4934559;29;20653;-67
2023/08/25 06:52:13;;;;;;;8.53;5.43;;;28.40;99.90;;;;;;4933440;29;20187;-68
2023/08/25 06:54:39;;;;;;;7.83;4.90;;;28.80;99.90;;;;;;4941211;29;20237;-68
2023/08/25 06:57:04;;;;;;;5.10;4.60;;;29.20;99.90;;;;;;4932793;29;20317;-69
2023/08/25 06:59:30;;;;;;;5.07;4.67;;;29.50;99.90;;;;;;4933700;29;20183;-69
2023/08/25 07:01:56;;;;;;;4.80;4.23;;;29.60;99.90;;;;;;4934396;29;20575;-68
2023/08/25 07:04:21;;;;;;;5.30;4.80;;;29.90;99.90;;;;;;4937820;29;20202;-70
2023/08/25 07:06:47;;;;;;;7.33;4.80;;;29.80;99.90;;;;;;4934238;29;20199;-67
2023/08/25 07:09:13;;;;;;;5.87;4.27;;;29.40;99.90;;;;;;4934162;29;20174;-69
2023/08/25 07:11:39;;;;;;;6.40;5.73;;;29.50;99.90;;;;;;4932139;29;20179;-71
2023/08/25 07:14:04;;;;;;;5.33;4.93;;;29.20;99.90;;;;;;4933947;29;20446;-71
2023/08/25 07:16:30;;;;;;;6.10;5.57;;;29.00;99.90;;;;;;4933913;29;20414;-70
2023/08/25 07:18:57;;;;;;;9.80;7.67;;;29.80;99.90;;;;;;4934046;29;20648;-70
2023/08/25 07:21:23;;;;;;;6.30;5.70;;;30.60;99.90;;;;;;4936743;29;20183;-70
2023/08/25 07:23:50;;;;;;;7.00;5.80;;;31.10;99.90;;;;;;4937837;29;20565;-69
2023/08/25 07:26:15;;;;;;;6.43;4.17;;;30.80;99.90;;;;;;4937760;29;20201;-69
2023/08/25 07:28:41;;;;;;;5.20;4.70;;;30.50;99.90;;;;;;4937443;29;20513;-69
2023/08/25 07:31:07;;;;;;;5.60;5.10;;;30.00;99.90;;;;;;4937828;29;20182;-70
2023/08/25 07:33:33;;;;;;;5.40;4.90;;;30.20;99.90;;;;;;4937982;29;20182;-69
2023/08/25 07:36:00;;;;;;;5.37;4.23;;;29.80;99.90;;;;;;4937106;29;20451;-68
2023/08/25 07:38:25;;;;;;;8.13;5.07;;;29.60;99.90;;;;;;4938043;29;20887;-69
2023/08/25 07:40:51;;;;;;;4.60;4.03;;;31.10;99.90;;;;;;4937423;29;20497;-69
2023/08/25 07:43:17;;;;;;;6.53;4.80;;;30.80;99.90;;;;;;4937564;29;20229;-69
2023/08/25 07:45:43;;;;;;;5.70;5.20;;;29.00;99.90;;;;;;4937422;29;20198;-69
2023/08/25 07:48:09;;;;;;;7.37;5.07;;;30.10;99.90;;;;;;4920300;29;20185;-70
2023/08/25 07:50:34;;;;;;;5.07;4.67;;;30.00;99.90;;;;;;4936992;29;20182;-68
2023/08/25 07:53:00;;;;;;;6.20;4.93;;;30.20;99.90;;;;;;4937069;29;20654;-69
2023/08/25 07:55:26;;;;;;;5.57;4.43;;;30.80;99.90;;;;;;4936072;29;20202;-69
2023/08/25 07:57:52;;;;;;;7.33;4.20;;;30.80;99.90;;;;;;4936606;29;20548;-68
2023/08/25 08:00:18;;;;;;;6.67;4.70;;;31.00;99.90;;;;;;4936962;29;20442;-69
2023/08/25 08:02:45;;;;;;;5.13;4.63;;;30.60;99.90;;;;;;4937317;29;20957;-69
2023/08/25 08:05:11;;;;;;;5.87;4.50;;;30.70;99.90;;;;;;4936172;29;20879;-69
2023/08/25 08:07:38;;;;;;;4.30;4.00;;;30.40;99.90;;;;;;4935992;29;20517;-69
2023/08/25 08:10:05;;;;;;;4.53;4.13;;;30.60;99.90;;;;;;4936595;29;20761;-71
2023/08/25 08:12:31;;;;;;;5.17;4.60;;;30.40;99.90;;;;;;4936517;29;20797;-68
2023/08/25 08:14:57;;;;;;;8.13;6.93;;;32.10;99.90;;;;;;4936447;29;20464;-68
2023/08/25 08:17:23;;;;;;;6.50;5.60;;;31.10;99.90;;;;;;4936412;29;20453;-68
2023/08/25 08:19:49;;;;;;;10.40;5.40;;;32.40;99.90;;;;;;4937073;29;20414;-68
2023/08/25 08:22:17;;;;;;;3.90;3.60;;;31.70;99.90;;;;;;4937004;29;20285;-68
2023/08/25 08:24:48;;;;;;;4.57;4.17;;;31.10;99.90;;;;;;4941011;29;20194;-69
2023/08/25 08:27:15;;;;;;;5.17;4.13;;;30.90;99.90;;;;;;4941440;29;20418;-68
2023/08/25 08:29:42;;;;;;;3.70;3.40;;;30.20;99.90;;;;;;4936663;29;20426;-69
2023/08/25 08:32:08;;;;;;;7.00;4.30;;;31.00;99.90;;;;;;4934545;29;20442;-70
2023/08/25 08:34:33;;;;;;;6.80;3.77;;;31.10;99.90;;;;;;4935157;29;20568;-69
2023/08/25 08:36:59;;;;;;;4.37;4.07;;;31.40;99.90;;;;;;4936818;29;20490;-69
2023/08/25 08:39:25;;;;;;;5.50;4.27;;;31.00;99.90;;;;;;4935138;29;20664;-69
2023/08/25 08:41:52;;;;;;;7.70;4.63;;;31.10;99.90;;;;;;4931562;29;20189;-70
2023/08/25 08:44:22;;;;;;;4.23;3.73;;;31.40;99.90;;;;;;4936366;29;20206;-70
2023/08/25 08:46:50;;;;;;;5.87;3.80;;;31.20;99.90;;;;;;4921955;29;20427;-69
2023/08/25 08:49:16;;;;;;;4.90;4.00;;;30.90;99.90;;;;;;4919764;29;20801;-69
2023/08/25 08:51:43;;;;;;;4.70;3.50;;;31.00;99.90;;;;;;4936630;29;20419;-68
2023/08/25 08:54:09;;;;;;;5.57;3.87;;;30.70;99.90;;;;;;4934763;29;20451;-69
2023/08/25 08:56:35;;;;;;;3.40;3.10;;;31.60;99.90;;;;;;4936443;29;20442;-70
2023/08/25 08:59:03;;;;;;;4.40;3.57;;;31.30;99.90;;;;;;4935922;29;20800;-68
2023/08/25 09:01:30;;;;;;;3.30;2.97;;;31.90;99.50;;;;;;4936482;29;20263;-68
2023/08/25 09:03:59;;;;;;;3.73;3.40;;;31.80;99.90;;;;;;4935586;29;20498;-68
2023/08/25 09:06:26;;;;;;;3.47;3.17;;;32.20;99.20;;;;;;4930501;29;20941;-70
2023/08/25 09:08:53;;;;;;;4.30;3.80;;;31.50;99.90;;;;;;4931143;29;20433;-70
2023/08/25 09:11:19;;;;;;;5.67;4.20;;;31.00;99.90;;;;;;4935837;29;20447;-70
2023/08/25 09:13:54;;;;;;;4.87;4.03;;;30.30;99.90;;;;;;4936283;29;20419;-70
2023/08/25 09:16:21;;;;;;;5.07;3.70;;;29.10;99.90;;;;;;4936442;29;20185;-69
2023/08/25 09:18:47;;;;;;;4.40;3.80;;;30.10;99.90;;;;;;4935849;29;20415;-69
2023/08/25 09:21:19;;;;;;;3.97;3.50;;;30.60;99.90;;;;;;4937443;29;20477;-69
2023/08/25 09:23:56;;;;;;;4.47;3.93;;;29.70;99.90;;;;;;4935337;29;20286;-69
2023/08/25 09:26:22;;;;;;;4.00;3.10;;;30.80;99.90;;;;;;4936092;29;20402;-69
2023/08/25 09:28:50;;;;;;;3.67;3.37;;;30.90;99.90;;;;;;4935364;29;20753;-69
2023/08/25 09:31:21;;;;;;;6.83;4.93;;;31.30;99.90;;;;;;4935825;29;20834;-69
2023/08/25 09:33:47;;;;;;;5.33;4.20;;;31.00;99.90;;;;;;4935517;29;20458;-70
2023/08/25 09:36:12;;;;;;;6.67;4.43;;;30.70;99.90;;;;;;4935160;29;20512;-69
2023/08/25 09:38:44;;;;;;;4.50;4.03;;;31.30;99.90;;;;;;4935419;29;20183;-69
2023/08/25 09:41:11;;;;;;;8.10;5.10;;;31.00;99.90;;;;;;4936202;29;20186;-69
2023/08/25 09:43:39;;;;;;;4.80;3.40;;;31.00;99.90;;;;;;4931654;29;20485;-70
2023/08/25 09:46:08;;;;;;;6.03;3.40;;;30.70;99.90;;;;;;4918569;29;20436;-70
2023/08/25 09:48:35;;;;;;;4.80;3.50;;;30.80;99.90;;;;;;4935081;29;20570;-69
2023/08/25 09:51:01;;;;;;;4.40;3.50;;;30.50;99.90;;;;;;4936597;29;20423;-69
2023/08/25 09:53:33;;;;;;;5.10;3.60;;;31.30;99.90;;;;;;4935240;29;20411;-69
2023/08/25 09:56:05;;;;;;;3.60;3.30;;;30.90;99.90;;;;;;4935920;29;20571;-70
2023/08/25 09:58:30;;;;;;;4.40;4.00;;;30.80;99.90;;;;;;4935512;29;20974;-71
2023/08/25 10:00:58;;;;;;;4.00;3.67;;;30.00;99.90;;;;;;4935525;29;20422;-72
2023/08/25 10:03:24;;;;;;;4.70;4.30;;;30.40;99.90;;;;;;4916257;29;20206;-69
2023/08/25 10:05:50;;;;;;;6.30;3.90;;;30.10;99.90;;;;;;4916002;29;20502;-70
2023/08/25 10:08:16;;;;;;;6.00;3.53;;;30.30;99.90;;;;;;4916122;29;20970;-69
2023/08/25 10:10:44;;;;;;;5.07;4.57;;;30.50;99.90;;;;;;4923547;29;20650;-69
2023/08/25 10:13:14;;;;;;;9.13;4.57;;;30.50;99.90;;;;;;4934830;29;20416;-69
2023/08/25 10:15:42;;;;;;;6.73;5.00;;;30.10;99.90;;;;;;4935019;29;20426;-69
2023/08/25 10:18:09;;;;;;;7.77;4.30;;;30.10;99.90;;;;;;4933424;29;20418;-68
2023/08/25 10:20:35;;;;;;;4.83;4.33;;;30.20;99.90;;;;;;4929488;29;20493;-69
2023/08/25 10:23:04;;;;;;;4.30;3.90;;;30.00;99.90;;;;;;4935016;29;20509;-69
2023/08/25 10:25:31;;;;;;;5.90;4.00;;;29.80;99.90;;;;;;4934451;29;20816;-69
2023/08/25 10:28:02;;;;;;;4.40;3.60;;;29.50;99.90;;;;;;4936264;29;20415;-69
2023/08/25 10:30:28;;;;;;;4.97;3.80;;;29.80;99.90;;;;;;4935343;29;20445;-69
2023/08/25 10:32:58;;;;;;;4.17;3.70;;;29.90;99.90;;;;;;4934602;29;20419;-68
2023/08/25 10:35:46;;;;;;;6.03;3.70;;;29.80;99.90;;;;;;4933592;29;21264;-68
2023/08/25 10:38:18;;;;;;;5.43;3.77;;;29.60;99.90;;;;;;4932454;29;20805;-69
2023/08/25 10:41:09;;;;;;;5.87;3.53;;;29.30;99.90;;;;;;4937024;29;20470;-69
2023/08/25 10:43:37;;;;;;;6.30;5.67;;;29.40;99.90;;;;;;4936271;29;21220;-70
2023/08/25 10:46:09;;;;;;;6.63;5.50;;;29.80;99.90;;;;;;4934926;29;20455;-70
2023/08/25 10:48:38;;;;;;;4.20;3.80;;;29.60;99.90;;;;;;4936383;29;20415;-70
2023/08/25 10:51:08;;;;;;;5.37;4.30;;;29.30;99.90;;;;;;4934453;29;20465;-70
2023/08/25 10:53:42;;;;;;;3.87;3.43;;;29.50;99.90;;;;;;4933624;29;20450;-70
2023/08/25 10:56:21;;;;;;;3.70;3.40;;;29.40;99.90;;;;;;4927003;29;20442;-70
2023/08/25 10:59:09;;;;;;;5.17;4.17;;;29.20;99.90;;;;;;4926618;29;20477;-69
2023/08/25 11:01:37;;;;;;;4.93;4.13;;;29.20;99.90;;;;;;4934204;29;21019;-70
2023/08/25 11:04:10;;;;;;;7.17;5.80;;;29.00;99.90;;;;;;4934946;29;20477;-70
2023/08/25 11:06:42;;;;;;;4.07;3.63;;;29.10;99.90;;;;;;4935120;29;20438;-68
2023/08/25 11:09:09;;;;;;;5.97;3.73;;;29.30;99.90;;;;;;4934101;29;20435;-70
2023/08/25 11:11:42;;;;;;;6.13;4.20;;;29.30;99.90;;;;;;4931610;29;20430;-70
2023/08/25 11:14:07;;;;;;;4.40;3.57;;;29.20;99.90;;;;;;4933040;29;20980;-71
2023/08/25 11:16:36;;;;;;;4.50;3.73;;;29.20;99.90;;;;;;4938591;29;20422;-69
2023/08/25 11:19:02;;;;;;;3.97;3.63;;;29.30;99.90;;;;;;4938781;29;20183;-68
2023/08/25 11:21:29;;;;;;;4.40;4.00;;;29.30;99.90;;;;;;4941002;29;20433;-70
2023/08/25 11:23:55;;;;;;;4.33;3.70;;;29.40;99.90;;;;;;4939335;29;20210;-69
2023/08/25 11:26:21;;;;;;;3.60;3.20;;;29.70;99.90;;;;;;4934232;29;20465;-68
2023/08/25 11:28:51;;;;;;;7.13;3.87;;;29.70;99.90;;;;;;4931527;29;20472;-71
2023/08/25 11:31:21;;;;;;;6.63;6.03;;;29.70;99.90;;;;;;4934006;29;20801;-71
2023/08/25 11:33:49;;;;;;;4.33;3.87;;;29.80;99.90;;;;;;4915632;29;20416;-71
2023/08/25 11:36:17;;;;;;;5.57;3.90;;;29.90;99.90;;;;;;4920336;29;20446;-70
2023/08/25 11:38:48;;;;;;;6.73;3.73;;;29.50;99.90;;;;;;4925701;29;20542;-71
2023/08/25 11:41:14;;;;;;;5.10;4.30;;;29.30;99.90;;;;;;4931879;29;20461;-70
2023/08/25 11:43:40;;;;;;;11.17;4.23;;;29.10;99.90;;;;;;4935121;29;20470;-69
2023/08/25 11:46:06;;;;;;;6.40;4.60;;;28.90;99.90;;;;;;4934326;29;20506;-69
2023/08/25 11:48:33;;;;;;;4.23;3.83;;;28.80;99.90;;;;;;4932906;29;20175;-70
2023/08/25 11:50:59;;;;;;;4.97;4.20;;;29.20;99.90;;;;;;4933695;29;20450;-70
2023/08/25 11:53:25;;;;;;;4.50;3.93;;;29.30;99.90;;;;;;4933367;29;20763;-73
2023/08/25 11:56:01;;;;;;;4.03;3.73;;;29.00;99.90;;;;;;4933980;29;20430;-72
2023/08/25 11:58:34;;;;;;;7.00;6.33;;;28.90;99.90;;;;;;4933262;29;20281;-70
2023/08/25 12:01:07;;;;;;;4.13;3.70;;;29.00;99.90;;;;;;4933482;29;20535;-69
2023/08/25 12:03:34;;;;;;;11.23;10.00;;;28.80;99.90;;;;;;4933630;29;20859;-70
2023/08/25 12:06:06;;;;;;;4.60;3.90;;;29.10;99.90;;;;;;4933829;29;20418;-71
2023/08/25 12:08:37;;;;;;;6.93;3.53;;;29.30;99.90;;;;;;4934958;29;20938;-70
2023/08/25 12:11:05;;;;;;;5.70;4.20;;;29.50;99.90;;;;;;4934976;29;20771;-70
2023/08/25 12:13:35;;;;;;;3.83;3.33;;;29.80;99.90;;;;;;4934097;29;20422;-68
2023/08/25 12:16:02;;;;;;;6.93;3.30;;;30.00;99.90;;;;;;4937654;29;20506;-69
2023/08/25 12:18:37;;;;;;;4.27;3.87;;;29.50;99.90;;;;;;4934815;29;20465;-69
2023/08/25 12:21:05;;;;;;;5.77;3.57;;;29.30;99.90;;;;;;4933711;29;20438;-71
2023/08/25 12:23:35;;;;;;;4.00;3.60;;;29.30;99.90;;;;;;4937053;29;20554;-69
2023/08/25 12:26:05;;;;;;;6.03;4.07;;;29.70;99.90;;;;;;4936622;29;20828;-69
2023/08/25 12:28:34;;;;;;;3.87;3.53;;;29.50;99.90;;;;;;4920393;29;20423;-70
2023/08/25 12:31:00;;;;;;;4.63;3.70;;;29.70;99.90;;;;;;4949002;29;21008;-69
2023/08/25 12:33:27;;;;;;;5.20;4.70;;;29.60;99.90;;;;;;4937825;29;20458;-70
2023/08/25 12:35:53;;;;;;;4.37;3.93;;;29.30;99.90;;;;;;4936811;29;20454;-69
2023/08/25 12:38:19;;;;;;;7.37;4.83;;;29.40;99.90;;;;;;4937342;29;20419;-68
2023/08/25 12:40:45;;;;;;;4.10;3.70;;;29.30;99.90;;;;;;4941881;29;20418;-70
2023/08/25 12:43:10;;;;;;;8.50;4.97;;;29.10;99.90;;;;;;4936882;29;20778;-70
2023/08/25 12:45:36;;;;;;;5.63;5.13;;;29.20;99.90;;;;;;4937438;29;20618;-70
2023/08/25 12:48:02;;;;;;;6.27;5.67;;;29.10;99.90;;;;;;4936729;29;20576;-69
2023/08/25 12:50:29;;;;;;;8.40;7.20;;;28.90;99.90;;;;;;4937080;29;20227;-69